sensor_id;sensor_type;location;lat;lon;timestamp;pressure;altitude;pressure_sealevel;temperature
49785;BMP280;35679;38.732;-121.358;2023-09-30T00:02:05;100264.28;;;26.89
49785;BMP280;35679;38.732;-121.358;2023-09-30T00:04:54;100253.97;;;26.91
49785;BMP280;35679;38.732;-121.358;2023-09-30T00:07:43;100253.16;;;26.90
49785;BMP280;35679;38.732;-121.358;2023-09-30T00:10:33;100250.72;;;26.89
49785;BMP280;35679;38.732;-121.358;2023-09-30T00:13:22;100251.56;;;26.84
49785;BMP280;35679;38.732;-121.358;2023-09-30T00:16:12;100252.09;;;26.86
49785;BMP280;35679;38.732;-121.358;2023-09-30T00:19:02;100257.00;;;26.84
49785;BMP280;35679;38.732;-121.358;2023-09-30T00:21:52;100254.56;;;26.83
49785;BMP280;35679;38.732;-121.358;2023-09-30T00:24:41;100249.50;;;26.76
49785;BMP280;35679;38.732;-121.358;2023-09-30T00:27:31;100259.78;;;26.74
49785;BMP280;35679;38.732;-121.358;2023-09-30T00:30:21;100256.00;;;26.75
49785;BMP280;35679;38.732;-121.358;2023-09-30T00:33:10;100262.19;;;26.76
49785;BMP280;35679;38.732;-121.358;2023-09-30T00:36:08;100257.63;;;26.76
49785;BMP280;35679;38.732;-121.358;2023-09-30T00:38:59;100272.81;;;26.72
49785;BMP280;35679;38.732;-121.358;2023-09-30T00:41:48;100273.91;;;26.71
49785;BMP280;35679;38.732;-121.358;2023-09-30T00:44:37;100270.16;;;26.67
49785;BMP280;35679;38.732;-121.358;2023-09-30T00:47:27;100260.91;;;26.68
49785;BMP280;35679;38.732;-121.358;2023-09-30T00:50:19;100269.31;;;26.67
49785;BMP280;35679;38.732;-121.358;2023-09-30T00:53:09;100264.78;;;26.62
49785;BMP280;35679;38.732;-121.358;2023-09-30T00:55:59;100252.81;;;26.63
49785;BMP280;35679;38.732;-121.358;2023-09-30T00:58:49;100240.66;;;26.61
49785;BMP280;35679;38.732;-121.358;2023-09-30T01:01:43;100236.63;;;26.58
49785;BMP280;35679;38.732;-121.358;2023-09-30T01:04:34;100243.16;;;26.57
49785;BMP280;35679;38.732;-121.358;2023-09-30T01:07:23;100252.06;;;26.58
49785;BMP280;35679;38.732;-121.358;2023-09-30T01:10:13;100252.09;;;26.53
49785;BMP280;35679;38.732;-121.358;2023-09-30T01:13:03;100245.38;;;26.50
49785;BMP280;35679;38.732;-121.358;2023-09-30T01:15:52;100249.19;;;26.45
49785;BMP280;35679;38.732;-121.358;2023-09-30T01:18:41;100259.97;;;26.49
49785;BMP280;35679;38.732;-121.358;2023-09-30T01:21:34;100256.22;;;26.46
49785;BMP280;35679;38.732;-121.358;2023-09-30T01:24:23;100261.94;;;26.44
49785;BMP280;35679;38.732;-121.358;2023-09-30T01:27:13;100273.00;;;26.43
49785;BMP280;35679;38.732;-121.358;2023-09-30T01:30:06;100261.38;;;26.42
49785;BMP280;35679;38.732;-121.358;2023-09-30T01:32:59;100258.69;;;26.42
49785;BMP280;35679;38.732;-121.358;2023-09-30T01:35:49;100253.25;;;26.42
49785;BMP280;35679;38.732;-121.358;2023-09-30T01:38:38;100248.16;;;26.41
49785;BMP280;35679;38.732;-121.358;2023-09-30T01:41:28;100254.63;;;26.40
49785;BMP280;35679;38.732;-121.358;2023-09-30T01:44:17;100254.94;;;26.38
49785;BMP280;35679;38.732;-121.358;2023-09-30T01:47:07;100251.97;;;26.30
49785;BMP280;35679;38.732;-121.358;2023-09-30T01:49:56;100246.00;;;26.33
49785;BMP280;35679;38.732;-121.358;2023-09-30T01:52:46;100244.38;;;26.32
49785;BMP280;35679;38.732;-121.358;2023-09-30T01:55:36;100241.44;;;26.28
49785;BMP280;35679;38.732;-121.358;2023-09-30T01:58:26;100232.25;;;26.24
49785;BMP280;35679;38.732;-121.358;2023-09-30T02:01:16;100232.03;;;26.21
49785;BMP280;35679;38.732;-121.358;2023-09-30T02:04:05;100233.59;;;26.22
49785;BMP280;35679;38.732;-121.358;2023-09-30T02:06:55;100236.84;;;26.24
49785;BMP280;35679;38.732;-121.358;2023-09-30T02:09:46;100226.66;;;26.16
49785;BMP280;35679;38.732;-121.358;2023-09-30T02:12:37;100229.63;;;26.09
49785;BMP280;35679;38.732;-121.358;2023-09-30T02:15:27;100232.38;;;26.04
49785;BMP280;35679;38.732;-121.358;2023-09-30T02:18:16;100240.19;;;26.06
49785;BMP280;35679;38.732;-121.358;2023-09-30T02:21:07;100236.41;;;26.07
49785;BMP280;35679;38.732;-121.358;2023-09-30T02:23:57;100236.97;;;26.04
49785;BMP280;35679;38.732;-121.358;2023-09-30T02:26:47;100233.19;;;26.05
49785;BMP280;35679;38.732;-121.358;2023-09-30T02:29:36;100232.94;;;26.01
49785;BMP280;35679;38.732;-121.358;2023-09-30T02:32:26;100226.69;;;26.01
49785;BMP280;35679;38.732;-121.358;2023-09-30T02:35:15;100227.81;;;26.00
49785;BMP280;35679;38.732;-121.358;2023-09-30T02:38:05;100239.16;;;25.97
49785;BMP280;35679;38.732;-121.358;2023-09-30T02:40:55;100242.97;;;25.91
49785;BMP280;35679;38.732;-121.358;2023-09-30T02:43:45;100235.75;;;25.82
49785;BMP280;35679;38.732;-121.358;2023-09-30T02:46:36;100237.59;;;25.86
49785;BMP280;35679;38.732;-121.358;2023-09-30T02:49:26;100248.38;;;25.91
49785;BMP280;35679;38.732;-121.358;2023-09-30T02:52:16;100246.53;;;25.86
49785;BMP280;35679;38.732;-121.358;2023-09-30T02:55:07;100245.44;;;25.82
49785;BMP280;35679;38.732;-121.358;2023-09-30T02:57:56;100254.66;;;25.86
49785;BMP280;35679;38.732;-121.358;2023-09-30T03:00:51;100242.50;;;25.84
49785;BMP280;35679;38.732;-121.358;2023-09-30T03:03:40;100244.66;;;25.82
49785;BMP280;35679;38.732;-121.358;2023-09-30T03:06:36;100260.06;;;25.82
49785;BMP280;35679;38.732;-121.358;2023-09-30T03:09:28;100254.41;;;25.78
49785;BMP280;35679;38.732;-121.358;2023-09-30T03:12:17;100255.50;;;25.72
49785;BMP280;35679;38.732;-121.358;2023-09-30T03:15:07;100250.09;;;25.72
49785;BMP280;35679;38.732;-121.358;2023-09-30T03:17:58;100251.16;;;25.66
49785;BMP280;35679;38.732;-121.358;2023-09-30T03:20:49;100250.88;;;25.68
49785;BMP280;35679;38.732;-121.358;2023-09-30T03:23:39;100247.94;;;25.59
49785;BMP280;35679;38.732;-121.358;2023-09-30T03:26:29;100252.56;;;25.59
49785;BMP280;35679;38.732;-121.358;2023-09-30T03:29:18;100251.75;;;25.58
49785;BMP280;35679;38.732;-121.358;2023-09-30T03:32:08;100244.44;;;25.59
49785;BMP280;35679;38.732;-121.358;2023-09-30T03:34:59;100237.69;;;25.56
49785;BMP280;35679;38.732;-121.358;2023-09-30T03:37:49;100244.44;;;25.59
49785;BMP280;35679;38.732;-121.358;2023-09-30T03:40:41;100243.09;;;25.56
49785;BMP280;35679;38.732;-121.358;2023-09-30T03:43:37;100236.94;;;25.51
49785;BMP280;35679;38.732;-121.358;2023-09-30T03:46:30;100247.75;;;25.41
49785;BMP280;35679;38.732;-121.358;2023-09-30T03:49:20;100250.19;;;25.42
49785;BMP280;35679;38.732;-121.358;2023-09-30T03:52:11;100247.47;;;25.42
49785;BMP280;35679;38.732;-121.358;2023-09-30T03:55:03;100250.69;;;25.44
49785;BMP280;35679;38.732;-121.358;2023-09-30T03:57:55;100255.31;;;25.44
49785;BMP280;35679;38.732;-121.358;2023-09-30T04:00:45;100242.59;;;25.39
49785;BMP280;35679;38.732;-121.358;2023-09-30T04:03:34;100238.28;;;25.38
49785;BMP280;35679;38.732;-121.358;2023-09-30T04:06:26;100245.59;;;25.33
49785;BMP280;35679;38.732;-121.358;2023-09-30T04:09:18;100253.16;;;25.31
49785;BMP280;35679;38.732;-121.358;2023-09-30T04:12:08;100251.81;;;25.28
49785;BMP280;35679;38.732;-121.358;2023-09-30T04:14:58;100255.34;;;25.29
49785;BMP280;35679;38.732;-121.358;2023-09-30T04:17:48;100245.91;;;25.26
49785;BMP280;35679;38.732;-121.358;2023-09-30T04:20:38;100257.78;;;25.25
49785;BMP280;35679;38.732;-121.358;2023-09-30T04:23:28;100246.97;;;25.25
49785;BMP280;35679;38.732;-121.358;2023-09-30T04:26:17;100253.44;;;25.24
49785;BMP280;35679;38.732;-121.358;2023-09-30T04:29:07;100258.34;;;25.22
49785;BMP280;35679;38.732;-121.358;2023-09-30T04:31:59;100258.06;;;25.19
49785;BMP280;35679;38.732;-121.358;2023-09-30T04:34:49;100257.00;;;25.20
49785;BMP280;35679;38.732;-121.358;2023-09-30T04:37:39;100264.28;;;25.14
49785;BMP280;35679;38.732;-121.358;2023-09-30T04:40:29;100262.66;;;25.13
49785;BMP280;35679;38.732;-121.358;2023-09-30T04:43:18;100272.91;;;25.16
49785;BMP280;35679;38.732;-121.358;2023-09-30T04:46:08;100263.47;;;25.14
49785;BMP280;35679;38.732;-121.358;2023-09-30T04:48:57;100270.22;;;25.12
49785;BMP280;35679;38.732;-121.358;2023-09-30T04:51:47;100272.94;;;25.12
49785;BMP280;35679;38.732;-121.358;2023-09-30T04:54:38;100276.16;;;25.09
49785;BMP280;35679;38.732;-121.358;2023-09-30T04:57:27;100283.16;;;25.05
49785;BMP280;35679;38.732;-121.358;2023-09-30T05:00:19;100282.91;;;25.06
49785;BMP280;35679;38.732;-121.358;2023-09-30T05:03:14;100290.19;;;25.01
49785;BMP280;35679;38.732;-121.358;2023-09-30T05:06:03;100284.78;;;25.01
49785;BMP280;35679;38.732;-121.358;2023-09-30T05:08:53;100280.47;;;24.95
49785;BMP280;35679;38.732;-121.358;2023-09-30T05:11:44;100280.47;;;24.95
49785;BMP280;35679;38.732;-121.358;2023-09-30T05:14:34;100278.28;;;24.92
49785;BMP280;35679;38.732;-121.358;2023-09-30T05:17:24;100280.75;;;24.83
49785;BMP280;35679;38.732;-121.358;2023-09-30T05:20:14;100279.38;;;24.86
49785;BMP280;35679;38.732;-121.358;2023-09-30T05:23:05;100286.13;;;24.78
49785;BMP280;35679;38.732;-121.358;2023-09-30T05:25:55;100288.00;;;24.78
49785;BMP280;35679;38.732;-121.358;2023-09-30T05:28:45;100287.22;;;24.82
49785;BMP280;35679;38.732;-121.358;2023-09-30T05:31:35;100290.97;;;24.81
49785;BMP280;35679;38.732;-121.358;2023-09-30T05:34:25;100293.41;;;24.78
49785;BMP280;35679;38.732;-121.358;2023-09-30T05:37:16;100294.47;;;24.77
49785;BMP280;35679;38.732;-121.358;2023-09-30T05:40:06;100291.25;;;24.75
49785;BMP280;35679;38.732;-121.358;2023-09-30T05:43:05;100288.56;;;24.70
49785;BMP280;35679;38.732;-121.358;2023-09-30T05:45:55;100290.69;;;24.68
49785;BMP280;35679;38.732;-121.358;2023-09-30T05:48:48;100283.41;;;24.68
49785;BMP280;35679;38.732;-121.358;2023-09-30T05:51:37;100280.69;;;24.68
49785;BMP280;35679;38.732;-121.358;2023-09-30T05:54:27;100285.31;;;24.68
49785;BMP280;35679;38.732;-121.358;2023-09-30T05:57:17;100284.22;;;24.64
49785;BMP280;35679;38.732;-121.358;2023-09-30T06:00:07;100283.16;;;24.65
49785;BMP280;35679;38.732;-121.358;2023-09-30T06:03:03;100282.06;;;24.66
49785;BMP280;35679;38.732;-121.358;2023-09-30T06:05:56;100288.00;;;24.63
49785;BMP280;35679;38.732;-121.358;2023-09-30T06:08:45;100284.22;;;24.59
49785;BMP280;35679;38.732;-121.358;2023-09-30T06:11:35;100285.84;;;24.60
49785;BMP280;35679;38.732;-121.358;2023-09-30T06:14:24;100280.97;;;24.57
49785;BMP280;35679;38.732;-121.358;2023-09-30T06:17:16;100283.41;;;24.53
49785;BMP280;35679;38.732;-121.358;2023-09-30T06:20:06;100285.84;;;24.50
49785;BMP280;35679;38.732;-121.358;2023-09-30T06:23:06;100278.53;;;24.50
49785;BMP280;35679;38.732;-121.358;2023-09-30T06:25:56;100278.25;;;24.47
49785;BMP280;35679;38.732;-121.358;2023-09-30T06:28:46;100280.44;;;24.50
49785;BMP280;35679;38.732;-121.358;2023-09-30T06:31:36;100286.34;;;24.42
49785;BMP280;35679;38.732;-121.358;2023-09-30T06:34:26;100282.88;;;24.47
49785;BMP280;35679;38.732;-121.358;2023-09-30T06:37:15;100281.75;;;24.43
49785;BMP280;35679;38.732;-121.358;2023-09-30T06:40:06;100283.59;;;24.37
49785;BMP280;35679;38.732;-121.358;2023-09-30T06:42:56;100284.16;;;24.39
49785;BMP280;35679;38.732;-121.358;2023-09-30T06:45:46;100277.41;;;24.37
49785;BMP280;35679;38.732;-121.358;2023-09-30T06:48:36;100281.47;;;24.39
49785;BMP280;35679;38.732;-121.358;2023-09-30T06:51:26;100288.50;;;24.40
49785;BMP280;35679;38.732;-121.358;2023-09-30T06:54:16;100284.72;;;24.41
49785;BMP280;35679;38.732;-121.358;2023-09-30T06:57:06;100287.94;;;24.38
49785;BMP280;35679;38.732;-121.358;2023-09-30T06:59:56;100290.34;;;24.35
49785;BMP280;35679;38.732;-121.358;2023-09-30T07:02:46;100295.47;;;24.36
49785;BMP280;35679;38.732;-121.358;2023-09-30T07:05:40;100297.34;;;24.31
49785;BMP280;35679;38.732;-121.358;2023-09-30T07:08:29;100302.47;;;24.32
49785;BMP280;35679;38.732;-121.358;2023-09-30T07:11:30;100292.75;;;24.31
49785;BMP280;35679;38.732;-121.358;2023-09-30T07:14:23;100298.72;;;24.33
49785;BMP280;35679;38.732;-121.358;2023-09-30T07:17:12;100292.22;;;24.29
49785;BMP280;35679;38.732;-121.358;2023-09-30T07:20:02;100285.22;;;24.28
49785;BMP280;35679;38.732;-121.358;2023-09-30T07:22:53;100287.34;;;24.26
49785;BMP280;35679;38.732;-121.358;2023-09-30T07:26:03;100289.25;;;24.26
49785;BMP280;35679;38.732;-121.358;2023-09-30T07:28:52;100285.72;;;24.25
49785;BMP280;35679;38.732;-121.358;2023-09-30T07:31:43;100285.44;;;24.22
49785;BMP280;35679;38.732;-121.358;2023-09-30T07:34:32;100288.13;;;24.22
49785;BMP280;35679;38.732;-121.358;2023-09-30T07:37:22;100288.41;;;24.20
49785;BMP280;35679;38.732;-121.358;2023-09-30T07:40:12;100297.56;;;24.19
49785;BMP280;35679;38.732;-121.358;2023-09-30T07:43:02;100299.75;;;24.17
49785;BMP280;35679;38.732;-121.358;2023-09-30T07:45:52;100298.13;;;24.16
49785;BMP280;35679;38.732;-121.358;2023-09-30T07:48:44;100302.41;;;24.12
49785;BMP280;35679;38.732;-121.358;2023-09-30T07:51:34;100287.88;;;24.13
49785;BMP280;35679;38.732;-121.358;2023-09-30T07:54:24;100290.31;;;24.15
49785;BMP280;35679;38.732;-121.358;2023-09-30T07:57:18;100288.66;;;24.14
49785;BMP280;35679;38.732;-121.358;2023-09-30T08:00:10;100298.66;;;24.13
49785;BMP280;35679;38.732;-121.358;2023-09-30T08:03:04;100297.03;;;24.12
49785;BMP280;35679;38.732;-121.358;2023-09-30T08:05:55;100293.25;;;24.08
49785;BMP280;35679;38.732;-121.358;2023-09-30T08:08:45;100301.56;;;24.07
49785;BMP280;35679;38.732;-121.358;2023-09-30T08:11:36;100298.88;;;24.07
49785;BMP280;35679;38.732;-121.358;2023-09-30T08:14:25;100306.44;;;24.05
49785;BMP280;35679;38.732;-121.358;2023-09-30T08:17:15;100295.38;;;24.06
49785;BMP280;35679;38.732;-121.358;2023-09-30T08:20:07;100298.63;;;24.03
49785;BMP280;35679;38.732;-121.358;2023-09-30T08:22:59;100300.75;;;24.01
49785;BMP280;35679;38.732;-121.358;2023-09-30T08:25:49;100302.38;;;24.02
49785;BMP280;35679;38.732;-121.358;2023-09-30T08:28:38;100301.31;;;24.03
49785;BMP280;35679;38.732;-121.358;2023-09-30T08:31:27;100310.72;;;24.01
49785;BMP280;35679;38.732;-121.358;2023-09-30T08:34:17;100308.28;;;23.99
49785;BMP280;35679;38.732;-121.358;2023-09-30T08:37:11;100316.34;;;23.94
49785;BMP280;35679;38.732;-121.358;2023-09-30T08:40:01;100308.00;;;23.96
49785;BMP280;35679;38.732;-121.358;2023-09-30T08:42:53;100311.22;;;23.93
49785;BMP280;35679;38.732;-121.358;2023-09-30T08:45:44;100314.72;;;23.93
49785;BMP280;35679;38.732;-121.358;2023-09-30T08:48:40;100312.03;;;23.93
49785;BMP280;35679;38.732;-121.358;2023-09-30T08:51:30;100318.53;;;23.92
49785;BMP280;35679;38.732;-121.358;2023-09-30T08:54:20;100302.59;;;23.91
49785;BMP280;35679;38.732;-121.358;2023-09-30T08:57:10;100310.66;;;23.91
49785;BMP280;35679;38.732;-121.358;2023-09-30T08:59:59;100310.16;;;23.89
49785;BMP280;35679;38.732;-121.358;2023-09-30T09:02:49;100315.50;;;23.84
49785;BMP280;35679;38.732;-121.358;2023-09-30T09:05:39;100313.09;;;23.87
49785;BMP280;35679;38.732;-121.358;2023-09-30T09:08:29;100312.00;;;23.88
49785;BMP280;35679;38.732;-121.358;2023-09-30T09:11:19;100307.44;;;23.89
49785;BMP280;35679;38.732;-121.358;2023-09-30T09:14:08;100304.19;;;23.87
49785;BMP280;35679;38.732;-121.358;2023-09-30T09:17:05;100304.75;;;23.89
49785;BMP280;35679;38.732;-121.358;2023-09-30T09:20:01;100299.06;;;23.85
49785;BMP280;35679;38.732;-121.358;2023-09-30T09:22:56;100303.09;;;23.83
49785;BMP280;35679;38.732;-121.358;2023-09-30T09:25:49;100300.69;;;23.81
49785;BMP280;35679;38.732;-121.358;2023-09-30T09:28:39;100301.75;;;23.80
49785;BMP280;35679;38.732;-121.358;2023-09-30T09:31:34;100309.84;;;23.80
49785;BMP280;35679;38.732;-121.358;2023-09-30T09:34:24;100302.53;;;23.81
49785;BMP280;35679;38.732;-121.358;2023-09-30T09:37:14;100299.06;;;23.80
49785;BMP280;35679;38.732;-121.358;2023-09-30T09:40:04;100290.38;;;23.74
49785;BMP280;35679;38.732;-121.358;2023-09-30T09:42:57;100302.22;;;23.73
49785;BMP280;35679;38.732;-121.358;2023-09-30T09:45:47;100292.75;;;23.70
49785;BMP280;35679;38.732;-121.358;2023-09-30T09:48:38;100287.69;;;23.74
49785;BMP280;35679;38.732;-121.358;2023-09-30T09:51:28;100281.97;;;23.70
49785;BMP280;35679;38.732;-121.358;2023-09-30T09:54:18;100279.56;;;23.69
49785;BMP280;35679;38.732;-121.358;2023-09-30T09:57:10;100276.06;;;23.68
49785;BMP280;35679;38.732;-121.358;2023-09-30T09:59:59;100269.84;;;23.68
49785;BMP280;35679;38.732;-121.358;2023-09-30T10:02:51;100264.22;;;23.69
49785;BMP280;35679;38.732;-121.358;2023-09-30T10:05:41;100264.22;;;23.69
49785;BMP280;35679;38.732;-121.358;2023-09-30T10:08:37;100260.97;;;23.67
49785;BMP280;35679;38.732;-121.358;2023-09-30T10:11:29;100259.63;;;23.65
49785;BMP280;35679;38.732;-121.358;2023-09-30T10:14:32;100255.28;;;23.64
49785;BMP280;35679;38.732;-121.358;2023-09-30T10:20:49;100246.69;;;23.62
49785;BMP280;35679;38.732;-121.358;2023-09-30T10:23:40;100246.94;;;23.65
49785;BMP280;35679;38.732;-121.358;2023-09-30T10:26:29;100255.84;;;23.61
49785;BMP280;35679;38.732;-121.358;2023-09-30T10:29:19;100259.06;;;23.63
49785;BMP280;35679;38.732;-121.358;2023-09-30T10:32:08;100259.06;;;23.63
49785;BMP280;35679;38.732;-121.358;2023-09-30T10:34:58;100261.75;;;23.63
49785;BMP280;35679;38.732;-121.358;2023-09-30T10:37:48;100270.38;;;23.60
49785;BMP280;35679;38.732;-121.358;2023-09-30T10:40:37;100268.47;;;23.60
49785;BMP280;35679;38.732;-121.358;2023-09-30T10:43:34;100263.91;;;23.61
49785;BMP280;35679;38.732;-121.358;2023-09-30T10:52:08;100269.56;;;23.59
49785;BMP280;35679;38.732;-121.358;2023-09-30T10:55:03;100278.97;;;23.57
49785;BMP280;35679;38.732;-121.358;2023-09-30T10:57:53;100273.03;;;23.55
49785;BMP280;35679;38.732;-121.358;2023-09-30T11:01:01;100279.22;;;23.55
49785;BMP280;35679;38.732;-121.358;2023-09-30T11:03:59;100280.56;;;23.53
49785;BMP280;35679;38.732;-121.358;2023-09-30T11:06:53;100284.31;;;23.52
49785;BMP280;35679;38.732;-121.358;2023-09-30T11:09:42;100282.19;;;23.54
49785;BMP280;35679;38.732;-121.358;2023-09-30T11:12:31;100281.38;;;23.53
49785;BMP280;35679;38.732;-121.358;2023-09-30T11:15:21;100283.81;;;23.55
49785;BMP280;35679;38.732;-121.358;2023-09-30T11:21:11;100281.63;;;23.52
49785;BMP280;35679;38.732;-121.358;2023-09-30T11:24:02;100277.34;;;23.51
49785;BMP280;35679;38.732;-121.358;2023-09-30T11:26:55;100275.69;;;23.50
49785;BMP280;35679;38.732;-121.358;2023-09-30T11:29:50;100271.38;;;23.49
49785;BMP280;35679;38.732;-121.358;2023-09-30T11:32:40;100272.44;;;23.48
49785;BMP280;35679;38.732;-121.358;2023-09-30T11:35:31;100277.56;;;23.49
49785;BMP280;35679;38.732;-121.358;2023-09-30T11:38:21;100263.00;;;23.45
49785;BMP280;35679;38.732;-121.358;2023-09-30T11:41:10;100272.97;;;23.45
49785;BMP280;35679;38.732;-121.358;2023-09-30T11:44:05;100260.31;;;23.45
49785;BMP280;35679;38.732;-121.358;2023-09-30T11:47:02;100263.00;;;23.45
49785;BMP280;35679;38.732;-121.358;2023-09-30T11:49:57;100256.81;;;23.45
49785;BMP280;35679;38.732;-121.358;2023-09-30T11:52:46;100251.94;;;23.42
49785;BMP280;35679;38.732;-121.358;2023-09-30T11:55:35;100250.84;;;23.38
49785;BMP280;35679;38.732;-121.358;2023-09-30T11:58:26;100252.47;;;23.39
49785;BMP280;35679;38.732;-121.358;2023-09-30T12:01:16;100252.22;;;23.40
49785;BMP280;35679;38.732;-121.358;2023-09-30T12:04:05;100257.88;;;23.39
49785;BMP280;35679;38.732;-121.358;2023-09-30T12:06:55;100254.06;;;23.35
49785;BMP280;35679;38.732;-121.358;2023-09-30T12:09:46;100264.56;;;23.36
49785;BMP280;35679;38.732;-121.358;2023-09-30T12:12:36;100268.34;;;23.35
49785;BMP280;35679;38.732;-121.358;2023-09-30T12:15:28;100264.31;;;23.38
49785;BMP280;35679;38.732;-121.358;2023-09-30T12:18:18;100255.44;;;23.37
49785;BMP280;35679;38.732;-121.358;2023-09-30T12:21:13;100262.19;;;23.40
49785;BMP280;35679;38.732;-121.358;2023-09-30T12:24:09;100258.66;;;23.39
49785;BMP280;35679;38.732;-121.358;2023-09-30T12:26:58;100262.72;;;23.42
49785;BMP280;35679;38.732;-121.358;2023-09-30T12:29:48;100264.34;;;23.43
49785;BMP280;35679;38.732;-121.358;2023-09-30T12:32:37;100260.03;;;23.47
49785;BMP280;35679;38.732;-121.358;2023-09-30T12:35:28;100260.31;;;23.45
49785;BMP280;35679;38.732;-121.358;2023-09-30T12:38:18;100264.91;;;23.45
49785;BMP280;35679;38.732;-121.358;2023-09-30T12:41:07;100258.72;;;23.49
49785;BMP280;35679;38.732;-121.358;2023-09-30T12:43:57;100254.66;;;23.47
49785;BMP280;35679;38.732;-121.358;2023-09-30T12:46:46;100261.16;;;23.46
49785;BMP280;35679;38.732;-121.358;2023-09-30T12:49:36;100257.13;;;23.48
49785;BMP280;35679;38.732;-121.358;2023-09-30T12:52:26;100257.91;;;23.49
49785;BMP280;35679;38.732;-121.358;2023-09-30T12:55:15;100262.25;;;23.50
49785;BMP280;35679;38.732;-121.358;2023-09-30T12:58:05;100263.56;;;23.47
49785;BMP280;35679;38.732;-121.358;2023-09-30T13:00:56;100262.75;;;23.47
49785;BMP280;35679;38.732;-121.358;2023-09-30T13:04:02;100264.94;;;23.50
49785;BMP280;35679;38.732;-121.358;2023-09-30T13:06:52;100275.41;;;23.46
49785;BMP280;35679;38.732;-121.358;2023-09-30T13:09:42;100278.13;;;23.51
49785;BMP280;35679;38.732;-121.358;2023-09-30T13:12:31;100277.84;;;23.48
49785;BMP280;35679;38.732;-121.358;2023-09-30T13:15:21;100281.63;;;23.52
49785;BMP280;35679;38.732;-121.358;2023-09-30T13:18:13;100278.91;;;23.52
49785;BMP280;35679;38.732;-121.358;2023-09-30T13:21:03;100285.94;;;23.53
49785;BMP280;35679;38.732;-121.358;2023-09-30T13:23:54;100286.78;;;23.53
49785;BMP280;35679;38.732;-121.358;2023-09-30T13:26:44;100285.41;;;23.51
49785;BMP280;35679;38.732;-121.358;2023-09-30T13:29:33;100282.72;;;23.51
49785;BMP280;35679;38.732;-121.358;2023-09-30T13:32:22;100283.50;;;23.51
49785;BMP280;35679;38.732;-121.358;2023-09-30T13:35:12;100288.63;;;23.53
49785;BMP280;35679;38.732;-121.358;2023-09-30T13:38:01;100292.66;;;23.50
49785;BMP280;35679;38.732;-121.358;2023-09-30T13:40:52;100286.72;;;23.43
49785;BMP280;35679;38.732;-121.358;2023-09-30T13:43:41;100292.34;;;23.47
49785;BMP280;35679;38.732;-121.358;2023-09-30T13:46:31;100301.28;;;23.47
49785;BMP280;35679;38.732;-121.358;2023-09-30T13:49:20;100299.94;;;23.50
49785;BMP280;35679;38.732;-121.358;2023-09-30T13:52:09;100301.00;;;23.49
49785;BMP280;35679;38.732;-121.358;2023-09-30T13:55:07;100308.00;;;23.50
49785;BMP280;35679;38.732;-121.358;2023-09-30T13:57:57;100307.47;;;23.53
49785;BMP280;35679;38.732;-121.358;2023-09-30T14:00:47;100303.44;;;23.50
49785;BMP280;35679;38.732;-121.358;2023-09-30T14:03:37;100306.41;;;23.54
49785;BMP280;35679;38.732;-121.358;2023-09-30T14:06:26;100305.34;;;23.55
49785;BMP280;35679;38.732;-121.358;2023-09-30T14:09:18;100309.38;;;23.52
49785;BMP280;35679;38.732;-121.358;2023-09-30T14:12:10;100316.91;;;23.55
49785;BMP280;35679;38.732;-121.358;2023-09-30T14:14:59;100315.59;;;23.58
49785;BMP280;35679;38.732;-121.358;2023-09-30T14:17:48;100331.75;;;23.58
49785;BMP280;35679;38.732;-121.358;2023-09-30T14:20:38;100331.75;;;23.58
49785;BMP280;35679;38.732;-121.358;2023-09-30T14:23:27;100331.75;;;23.58
49785;BMP280;35679;38.732;-121.358;2023-09-30T14:26:17;100328.00;;;23.59
49785;BMP280;35679;38.732;-121.358;2023-09-30T14:29:06;100340.94;;;23.57
49785;BMP280;35679;38.732;-121.358;2023-09-30T14:31:56;100335.53;;;23.57
49785;BMP280;35679;38.732;-121.358;2023-09-30T14:34:46;100339.03;;;23.57
49785;BMP280;35679;38.732;-121.358;2023-09-30T14:37:36;100334.97;;;23.55
49785;BMP280;35679;38.732;-121.358;2023-09-30T14:40:25;100342.00;;;23.56
49785;BMP280;35679;38.732;-121.358;2023-09-30T14:43:15;100344.69;;;23.56
49785;BMP280;35679;38.732;-121.358;2023-09-30T14:46:05;100352.50;;;23.57
49785;BMP280;35679;38.732;-121.358;2023-09-30T14:48:54;100345.47;;;23.56
49785;BMP280;35679;38.732;-121.358;2023-09-30T14:51:44;100350.06;;;23.56
49785;BMP280;35679;38.732;-121.358;2023-09-30T14:54:37;100352.50;;;23.57
49785;BMP280;35679;38.732;-121.358;2023-09-30T14:57:26;100354.63;;;23.55
49785;BMP280;35679;38.732;-121.358;2023-09-30T15:00:16;100369.44;;;23.58
49785;BMP280;35679;38.732;-121.358;2023-09-30T15:03:06;100366.75;;;23.58
49785;BMP280;35679;38.732;-121.358;2023-09-30T15:05:59;100367.84;;;23.57
49785;BMP280;35679;38.732;-121.358;2023-09-30T15:08:50;100375.94;;;23.57
49785;BMP280;35679;38.732;-121.358;2023-09-30T15:11:40;100390.97;;;23.53
49785;BMP280;35679;38.732;-121.358;2023-09-30T15:14:29;100386.16;;;23.55
49785;BMP280;35679;38.732;-121.358;2023-09-30T15:17:18;100387.78;;;23.56
49785;BMP280;35679;38.732;-121.358;2023-09-30T15:20:08;100388.00;;;23.54
49785;BMP280;35679;38.732;-121.358;2023-09-30T15:22:58;100378.63;;;23.57
49785;BMP280;35679;38.732;-121.358;2023-09-30T15:25:48;100386.44;;;23.58
49785;BMP280;35679;38.732;-121.358;2023-09-30T15:28:38;100386.72;;;23.57
49785;BMP280;35679;38.732;-121.358;2023-09-30T15:31:28;100392.63;;;23.59
49785;BMP280;35679;38.732;-121.358;2023-09-30T15:34:18;100385.38;;;23.59
49785;BMP280;35679;38.732;-121.358;2023-09-30T15:37:08;100395.88;;;23.61
49785;BMP280;35679;38.732;-121.358;2023-09-30T15:39:57;100387.81;;;23.61
49785;BMP280;35679;38.732;-121.358;2023-09-30T15:42:47;100395.06;;;23.60